sensor_id;sensor_type;location;lat;lon;timestamp;pressure;altitude;pressure_sealevel;temperature;humidity
50592;BME280;36548;50.506;30.834;2023-04-08T00:00:18;100454.72;;;11.66;72.99
50592;BME280;36548;50.506;30.834;2023-04-08T00:01:28;100448.41;;;11.53;73.09
50592;BME280;36548;50.506;30.834;2023-04-08T00:02:44;100450.98;;;11.54;73.83
50592;BME280;36548;50.506;30.834;2023-04-08T00:03:53;100443.87;;;11.26;74.62
50592;BME280;36548;50.506;30.834;2023-04-08T00:05:04;100454.78;;;11.37;74.63
50592;BME280;36548;50.506;30.834;2023-04-08T00:06:14;100447.66;;;11.51;74.71
50592;BME280;36548;50.506;30.834;2023-04-08T00:07:24;100443.87;;;11.53;74.42
50592;BME280;36548;50.506;30.834;2023-04-08T00:08:40;100440.91;;;11.58;74.49
50592;BME280;36548;50.506;30.834;2023-04-08T00:09:50;100457.14;;;11.56;74.04
50592;BME280;36548;50.506;30.834;2023-04-08T00:11:00;100443.64;;;11.71;73.63
50592;BME280;36548;50.506;30.834;2023-04-08T00:12:10;100445.02;;;11.64;73.84
50592;BME280;36548;50.506;30.834;2023-04-08T00:13:20;100453.09;;;11.64;74.07
50592;BME280;36548;50.506;30.834;2023-04-08T00:14:36;100448.91;;;11.72;73.48
50592;BME280;36548;50.506;30.834;2023-04-08T00:15:45;100448.09;;;11.57;73.85
50592;BME280;36548;50.506;30.834;2023-04-08T00:17:00;100443.70;;;11.56;74.65
50592;BME280;36548;50.506;30.834;2023-04-08T00:18:10;100451.20;;;11.51;74.69
50592;BME280;36548;50.506;30.834;2023-04-08T00:19:25;100440.34;;;11.53;74.61
50592;BME280;36548;50.506;30.834;2023-04-08T00:20:34;100446.62;;;11.39;74.92
50592;BME280;36548;50.506;30.834;2023-04-08T00:21:44;100443.23;;;11.50;74.27
50592;BME280;36548;50.506;30.834;2023-04-08T00:22:53;100442.28;;;11.51;74.92
50592;BME280;36548;50.506;30.834;2023-04-08T00:24:09;100444.87;;;11.52;74.75
50592;BME280;36548;50.506;30.834;2023-04-08T00:25:19;100437.86;;;11.50;74.42
50592;BME280;36548;50.506;30.834;2023-04-08T00:26:30;100442.56;;;11.46;74.75
50592;BME280;36548;50.506;30.834;2023-04-08T00:27:46;100428.16;;;11.47;74.84
50592;BME280;36548;50.506;30.834;2023-04-08T00:28:55;100440.55;;;11.50;74.82
50592;BME280;36548;50.506;30.834;2023-04-08T00:30:05;100439.02;;;11.46;74.87
50592;BME280;36548;50.506;30.834;2023-04-08T00:31:22;100436.33;;;11.46;75.69
50592;BME280;36548;50.506;30.834;2023-04-08T00:32:32;100441.66;;;11.33;75.42
50592;BME280;36548;50.506;30.834;2023-04-08T00:33:48;100435.55;;;11.43;75.55
50592;BME280;36548;50.506;30.834;2023-04-08T00:34:58;100439.72;;;11.35;75.67
50592;BME280;36548;50.506;30.834;2023-04-08T00:36:13;100429.52;;;11.67;75.32
50592;BME280;36548;50.506;30.834;2023-04-08T00:37:23;100442.98;;;11.40;75.17
50592;BME280;36548;50.506;30.834;2023-04-08T00:38:32;100441.03;;;11.42;75.46
50592;BME280;36548;50.506;30.834;2023-04-08T00:39:42;100444.88;;;11.38;75.31
50592;BME280;36548;50.506;30.834;2023-04-08T00:40:57;100432.77;;;11.45;76.02
50592;BME280;36548;50.506;30.834;2023-04-08T00:42:07;100429.64;;;11.38;76.06
50592;BME280;36548;50.506;30.834;2023-04-08T00:43:19;100433.13;;;11.26;76.28
50592;BME280;36548;50.506;30.834;2023-04-08T00:44:32;100435.66;;;11.42;76.27
50592;BME280;36548;50.506;30.834;2023-04-08T00:45:42;100428.42;;;11.57;76.01
50592;BME280;36548;50.506;30.834;2023-04-08T00:46:57;100415.40;;;11.51;76.02
50592;BME280;36548;50.506;30.834;2023-04-08T00:48:06;100432.87;;;11.43;75.66
50592;BME280;36548;50.506;30.834;2023-04-08T00:49:15;100435.02;;;11.38;75.94
50592;BME280;36548;50.506;30.834;2023-04-08T00:50:26;100427.39;;;11.45;75.66
50592;BME280;36548;50.506;30.834;2023-04-08T00:51:35;100427.31;;;11.47;75.43
50592;BME280;36548;50.506;30.834;2023-04-08T00:52:44;100429.64;;;11.38;75.73
50592;BME280;36548;50.506;30.834;2023-04-08T00:53:54;100428.59;;;11.26;76.75
50592;BME280;36548;50.506;30.834;2023-04-08T00:55:05;100427.59;;;11.42;76.44
50592;BME280;36548;50.506;30.834;2023-04-08T00:56:22;100414.17;;;11.69;76.26
50592;BME280;36548;50.506;30.834;2023-04-08T00:57:33;100424.95;;;11.55;75.72
50592;BME280;36548;50.506;30.834;2023-04-08T00:58:49;100421.81;;;11.75;75.49
50592;BME280;36548;50.506;30.834;2023-04-08T01:00:03;100423.80;;;11.59;75.52
50592;BME280;36548;50.506;30.834;2023-04-08T01:04:32;100420.86;;;11.76;75.14
50592;BME280;36548;50.506;30.834;2023-04-08T01:07:02;100412.86;;;11.62;75.48
50592;BME280;36548;50.506;30.834;2023-04-08T01:08:11;100418.13;;;11.64;75.60
50592;BME280;36548;50.506;30.834;2023-04-08T01:09:24;100420.61;;;11.67;75.20
50592;BME280;36548;50.506;30.834;2023-04-08T01:10:44;100419.33;;;11.72;75.04
50592;BME280;36548;50.506;30.834;2023-04-08T01:11:56;100422.80;;;11.74;75.11
50592;BME280;36548;50.506;30.834;2023-04-08T01:13:11;100421.09;;;11.86;74.92
50592;BME280;36548;50.506;30.834;2023-04-08T01:14:24;100421.81;;;11.75;74.46
50592;BME280;36548;50.506;30.834;2023-04-08T01:15:41;100415.08;;;11.55;75.70
50592;BME280;36548;50.506;30.834;2023-04-08T01:16:54;100418.48;;;11.72;75.71
50592;BME280;36548;50.506;30.834;2023-04-08T01:18:12;100422.94;;;11.86;75.48
50592;BME280;36548;50.506;30.834;2023-04-08T01:19:28;100420.25;;;11.86;75.32
50592;BME280;36548;50.506;30.834;2023-04-08T01:20:45;100423.79;;;11.86;74.42
50592;BME280;36548;50.506;30.834;2023-04-08T01:23:34;100418.34;;;11.60;76.19
50592;BME280;36548;50.506;30.834;2023-04-08T01:24:43;100425.95;;;11.54;75.67
50592;BME280;36548;50.506;30.834;2023-04-08T01:26:00;100423.75;;;11.73;75.73
50592;BME280;36548;50.506;30.834;2023-04-08T01:27:11;100435.28;;;11.48;75.69
50592;BME280;36548;50.506;30.834;2023-04-08T01:28:29;100431.44;;;11.38;76.73
50592;BME280;36548;50.506;30.834;2023-04-08T01:29:41;100433.28;;;11.37;76.50
50592;BME280;36548;50.506;30.834;2023-04-08T01:30:59;100419.79;;;11.52;76.48
50592;BME280;36548;50.506;30.834;2023-04-08T01:32:10;100425.97;;;11.39;76.32
50592;BME280;36548;50.506;30.834;2023-04-08T01:33:28;100422.38;;;11.53;76.74
50592;BME280;36548;50.506;30.834;2023-04-08T01:34:40;100430.18;;;11.43;76.29
50592;BME280;36548;50.506;30.834;2023-04-08T01:35:58;100421.03;;;11.60;75.90
50592;BME280;36548;50.506;30.834;2023-04-08T01:37:10;100426.76;;;11.27;76.81
50592;BME280;36548;50.506;30.834;2023-04-08T01:38:27;100435.02;;;11.38;77.04
50592;BME280;36548;50.506;30.834;2023-04-08T01:39:38;100432.13;;;11.27;77.28
50592;BME280;36548;50.506;30.834;2023-04-08T01:40:57;100431.42;;;11.52;76.89
50592;BME280;36548;50.506;30.834;2023-04-08T01:42:07;100433.92;;;11.41;76.33
50592;BME280;36548;50.506;30.834;2023-04-08T01:43:23;100430.08;;;11.45;76.59
50592;BME280;36548;50.506;30.834;2023-04-08T01:44:35;100432.34;;;11.24;77.32
50592;BME280;36548;50.506;30.834;2023-04-08T01:45:45;100436.28;;;11.18;77.47
50592;BME280;36548;50.506;30.834;2023-04-08T01:46:56;100432.06;;;11.29;77.55
50592;BME280;36548;50.506;30.834;2023-04-08T01:48:06;100436.59;;;11.14;77.69
50592;BME280;36548;50.506;30.834;2023-04-08T01:49:16;100427.65;;;11.13;78.08
50592;BME280;36548;50.506;30.834;2023-04-08T01:50:26;100438.50;;;11.12;77.92
50592;BME280;36548;50.506;30.834;2023-04-08T01:51:43;100429.86;;;11.21;78.06
50592;BME280;36548;50.506;30.834;2023-04-08T01:52:55;100437.06;;;11.06;78.39
50592;BME280;36548;50.506;30.834;2023-04-08T01:54:12;100439.38;;;11.12;78.89
50592;BME280;36548;50.506;30.834;2023-04-08T01:55:23;100425.16;;;11.10;78.66
50592;BME280;36548;50.506;30.834;2023-04-08T01:56:41;100434.55;;;11.17;78.49
50592;BME280;36548;50.506;30.834;2023-04-08T01:57:53;100423.73;;;11.19;78.65
50592;BME280;36548;50.506;30.834;2023-04-08T01:59:06;100431.96;;;11.30;78.35
50592;BME280;36548;50.506;30.834;2023-04-08T02:00:25;100426.16;;;11.51;77.18
50592;BME280;36548;50.506;30.834;2023-04-08T02:01:36;100432.97;;;11.42;77.46
50592;BME280;36548;50.506;30.834;2023-04-08T02:02:54;100432.53;;;11.63;77.29
50592;BME280;36548;50.506;30.834;2023-04-08T02:04:05;100429.73;;;11.64;77.05
50592;BME280;36548;50.506;30.834;2023-04-08T02:05:15;100431.57;;;11.64;76.33
50592;BME280;36548;50.506;30.834;2023-04-08T02:06:25;100434.87;;;11.82;76.65
50592;BME280;36548;50.506;30.834;2023-04-08T02:07:46;100431.97;;;12.12;76.87
50592;BME280;36548;50.506;30.834;2023-04-08T02:08:55;100436.90;;;12.05;75.76
50592;BME280;36548;50.506;30.834;2023-04-08T02:10:06;100433.25;;;12.06;74.85
50592;BME280;36548;50.506;30.834;2023-04-08T02:11:22;100423.47;;;12.31;74.67
50592;BME280;36548;50.506;30.834;2023-04-08T02:12:33;100437.58;;;12.22;73.67
50592;BME280;36548;50.506;30.834;2023-04-08T02:13:44;100429.40;;;12.23;73.25
50592;BME280;36548;50.506;30.834;2023-04-08T02:14:54;100443.41;;;12.28;73.45
50592;BME280;36548;50.506;30.834;2023-04-08T02:16:18;100432.21;;;12.48;73.30
50592;BME280;36548;50.506;30.834;2023-04-08T02:17:42;100426.59;;;12.25;72.47
50592;BME280;36548;50.506;30.834;2023-04-08T02:19:09;100434.68;;;12.38;72.95
50592;BME280;36548;50.506;30.834;2023-04-08T02:21:46;100430.25;;;12.24;72.79
50592;BME280;36548;50.506;30.834;2023-04-08T02:24:31;100435.41;;;12.14;73.42
50592;BME280;36548;50.506;30.834;2023-04-08T02:25:44;100429.57;;;12.07;74.09
50592;BME280;36548;50.506;30.834;2023-04-08T02:26:55;100426.01;;;11.94;73.87
50592;BME280;36548;50.506;30.834;2023-04-08T02:28:08;100425.88;;;11.68;74.50
50592;BME280;36548;50.506;30.834;2023-04-08T02:29:28;100419.86;;;11.65;75.46
50592;BME280;36548;50.506;30.834;2023-04-08T02:30:44;100429.90;;;11.48;75.87
50592;BME280;36548;50.506;30.834;2023-04-08T02:32:01;100424.80;;;11.43;76.53
50592;BME280;36548;50.506;30.834;2023-04-08T02:33:12;100422.11;;;11.43;76.56
50592;BME280;36548;50.506;30.834;2023-04-08T02:34:29;100414.56;;;11.63;76.20
50592;BME280;36548;50.506;30.834;2023-04-08T02:35:41;100432.17;;;11.54;76.00
50592;BME280;36548;50.506;30.834;2023-04-08T02:36:58;100424.82;;;11.71;75.71
50592;BME280;36548;50.506;30.834;2023-04-08T02:38:08;100435.17;;;11.50;75.71
50592;BME280;36548;50.506;30.834;2023-04-08T02:39:31;100424.00;;;11.56;76.25
50592;BME280;36548;50.506;30.834;2023-04-08T02:40:41;100418.83;;;11.53;76.05
50592;BME280;36548;50.506;30.834;2023-04-08T02:41:57;100417.92;;;11.67;75.87
50592;BME280;36548;50.506;30.834;2023-04-08T02:43:07;100433.44;;;11.49;76.21
50592;BME280;36548;50.506;30.834;2023-04-08T02:44:23;100423.05;;;11.57;76.31
50592;BME280;36548;50.506;30.834;2023-04-08T02:45:40;100437.70;;;11.38;76.46
50592;BME280;36548;50.506;30.834;2023-04-08T02:46:55;100439.14;;;11.30;77.12
50592;BME280;36548;50.506;30.834;2023-04-08T02:48:07;100443.25;;;11.35;77.08
50592;BME280;36548;50.506;30.834;2023-04-08T02:49:16;100440.93;;;11.43;76.92
50592;BME280;36548;50.506;30.834;2023-04-08T02:50:32;100433.30;;;11.65;76.80
50592;BME280;36548;50.506;30.834;2023-04-08T02:51:41;100433.95;;;11.68;76.95
50592;BME280;36548;50.506;30.834;2023-04-08T02:52:57;100437.20;;;11.73;75.95
50592;BME280;36548;50.506;30.834;2023-04-08T02:54:07;100437.31;;;11.72;75.85
50592;BME280;36548;50.506;30.834;2023-04-08T02:55:22;100431.53;;;11.91;76.23
50592;BME280;36548;50.506;30.834;2023-04-08T02:56:32;100436.55;;;11.97;76.80
50592;BME280;36548;50.506;30.834;2023-04-08T02:57:42;100437.91;;;11.90;74.87
50592;BME280;36548;50.506;30.834;2023-04-08T02:58:51;100436.13;;;12.03;75.06
50592;BME280;36548;50.506;30.834;2023-04-08T03:00:05;100441.83;;;11.99;74.20
50592;BME280;36548;50.506;30.834;2023-04-08T03:01:22;100432.48;;;12.04;74.42
50592;BME280;36548;50.506;30.834;2023-04-08T03:02:31;100437.69;;;11.93;74.27
50592;BME280;36548;50.506;30.834;2023-04-08T03:03:46;100435.72;;;11.82;74.40
50592;BME280;36548;50.506;30.834;2023-04-08T03:04:55;100431.30;;;11.81;74.66
50592;BME280;36548;50.506;30.834;2023-04-08T03:06:07;100433.03;;;11.82;74.82
50592;BME280;36548;50.506;30.834;2023-04-08T03:07:17;100440.38;;;11.93;74.92
50592;BME280;36548;50.506;30.834;2023-04-08T03:08:32;100440.03;;;11.85;74.40
50592;BME280;36548;50.506;30.834;2023-04-08T03:09:42;100443.54;;;11.72;74.85
50592;BME280;36548;50.506;30.834;2023-04-08T03:10:57;100446.83;;;11.90;74.54
50592;BME280;36548;50.506;30.834;2023-04-08T03:12:06;100445.30;;;11.86;74.88
50592;BME280;36548;50.506;30.834;2023-04-08T03:13:16;100443.00;;;11.94;74.56
50592;BME280;36548;50.506;30.834;2023-04-08T03:14:26;100444.67;;;11.83;74.09
50592;BME280;36548;50.506;30.834;2023-04-08T03:15:44;100439.48;;;12.07;74.93
50592;BME280;36548;50.506;30.834;2023-04-08T03:16:54;100443.28;;;11.90;74.07
50592;BME280;36548;50.506;30.834;2023-04-08T03:18:04;100447.25;;;11.84;73.91
50592;BME280;36548;50.506;30.834;2023-04-08T03:19:19;100435.22;;;11.90;74.18
50592;BME280;36548;50.506;30.834;2023-04-08T03:20:29;100443.78;;;11.82;74.49
50592;BME280;36548;50.506;30.834;2023-04-08T03:21:38;100440.59;;;11.63;75.01
50592;BME280;36548;50.506;30.834;2023-04-08T03:22:48;100441.31;;;11.79;74.90
50592;BME280;36548;50.506;30.834;2023-04-08T03:24:23;100444.95;;;11.78;74.89
50592;BME280;36548;50.506;30.834;2023-04-08T03:25:31;100443.18;;;11.64;74.96
50592;BME280;36548;50.506;30.834;2023-04-08T03:26:46;100436.99;;;11.76;74.98
50592;BME280;36548;50.506;30.834;2023-04-08T03:27:57;100442.97;;;11.67;74.95
50592;BME280;36548;50.506;30.834;2023-04-08T03:29:12;100434.91;;;11.67;75.41
50592;BME280;36548;50.506;30.834;2023-04-08T03:30:22;100441.45;;;11.63;75.52
50592;BME280;36548;50.506;30.834;2023-04-08T03:31:38;100427.75;;;11.81;75.30
50592;BME280;36548;50.506;30.834;2023-04-08T03:32:47;100434.41;;;11.75;75.29
50592;BME280;36548;50.506;30.834;2023-04-08T03:33:56;100432.22;;;11.67;74.73
50592;BME280;36548;50.506;30.834;2023-04-08T03:35:06;100434.47;;;11.60;74.99
50592;BME280;36548;50.506;30.834;2023-04-08T03:36:17;100441.86;;;11.57;74.99
50592;BME280;36548;50.506;30.834;2023-04-08T03:37:52;100427.51;;;11.71;75.58
50592;BME280;36548;50.506;30.834;2023-04-08T03:39:03;100446.13;;;11.47;75.79
50592;BME280;36548;50.506;30.834;2023-04-08T03:40:21;100440.45;;;11.51;75.77
50592;BME280;36548;50.506;30.834;2023-04-08T03:41:30;100448.35;;;11.40;75.90
50592;BME280;36548;50.506;30.834;2023-04-08T03:42:47;100445.35;;;11.45;76.49
50592;BME280;36548;50.506;30.834;2023-04-08T03:43:57;100455.63;;;11.38;76.66
50592;BME280;36548;50.506;30.834;2023-04-08T03:45:07;100460.91;;;11.39;76.27
50592;BME280;36548;50.506;30.834;2023-04-08T03:46:17;100453.73;;;11.25;76.71
50592;BME280;36548;50.506;30.834;2023-04-08T03:47:26;100451.14;;;11.38;76.59
50592;BME280;36548;50.506;30.834;2023-04-08T03:48:36;100459.00;;;11.41;76.55
50592;BME280;36548;50.506;30.834;2023-04-08T03:49:54;100451.66;;;11.58;76.23
50592;BME280;36548;50.506;30.834;2023-04-08T03:51:03;100455.27;;;11.30;76.47
50592;BME280;36548;50.506;30.834;2023-04-08T03:52:19;100454.84;;;11.50;76.36
50592;BME280;36548;50.506;30.834;2023-04-08T03:53:28;100457.37;;;11.39;76.17
50592;BME280;36548;50.506;30.834;2023-04-08T03:54:38;100457.78;;;11.33;76.59
50592;BME280;36548;50.506;30.834;2023-04-08T03:55:48;100461.70;;;11.27;76.91
50592;BME280;36548;50.506;30.834;2023-04-08T03:57:09;100455.53;;;11.39;76.76
50592;BME280;36548;50.506;30.834;2023-04-08T03:58:20;100465.84;;;11.33;76.71
50592;BME280;36548;50.506;30.834;2023-04-08T03:59:36;100463.70;;;11.38;76.90
50592;BME280;36548;50.506;30.834;2023-04-08T04:00:48;100461.42;;;11.17;77.04
50592;BME280;36548;50.506;30.834;2023-04-08T04:01:59;100462.41;;;11.16;77.52
50592;BME280;36548;50.506;30.834;2023-04-08T04:03:14;100455.53;;;11.39;76.92
50592;BME280;36548;50.506;30.834;2023-04-08T04:04:23;100464.00;;;11.33;76.90
50592;BME280;36548;50.506;30.834;2023-04-08T04:05:39;100461.09;;;11.51;76.90
50592;BME280;36548;50.506;30.834;2023-04-08T04:06:49;100463.53;;;11.26;76.83
50592;BME280;36548;50.506;30.834;2023-04-08T04:07:58;100457.51;;;11.08;77.27
50592;BME280;36548;50.506;30.834;2023-04-08T04:09:14;100461.63;;;11.29;77.43
50592;BME280;36548;50.506;30.834;2023-04-08T04:10:25;100465.54;;;11.23;77.42
50592;BME280;36548;50.506;30.834;2023-04-08T04:11:34;100461.83;;;11.11;77.71
50592;BME280;36548;50.506;30.834;2023-04-08T04:12:49;100463.46;;;11.14;78.21
50592;BME280;36548;50.506;30.834;2023-04-08T04:13:59;100461.42;;;11.17;78.16
50592;BME280;36548;50.506;30.834;2023-04-08T04:15:09;100454.79;;;11.23;77.86
50592;BME280;36548;50.506;30.834;2023-04-08T04:16:19;100462.20;;;11.05;77.80
50592;BME280;36548;50.506;30.834;2023-04-08T04:17:28;100474.20;;;11.14;77.95
50592;BME280;36548;50.506;30.834;2023-04-08T04:18:37;100468.16;;;11.24;77.75
50592;BME280;36548;50.506;30.834;2023-04-08T04:19:52;100468.22;;;11.37;77.49
50592;BME280;36548;50.506;30.834;2023-04-08T04:21:06;100465.16;;;11.29;77.46
50592;BME280;36548;50.506;30.834;2023-04-08T04:22:15;100476.39;;;11.36;77.13
50592;BME280;36548;50.506;30.834;2023-04-08T04:23:30;100466.27;;;11.54;76.83
50592;BME280;36548;50.506;30.834;2023-04-08T04:24:49;100470.22;;;11.48;76.54
50592;BME280;36548;50.506;30.834;2023-04-08T04:26:08;100461.41;;;11.73;76.35
50592;BME280;36548;50.506;30.834;2023-04-08T04:27:18;100466.32;;;11.67;76.50
50592;BME280;36548;50.506;30.834;2023-04-08T04:28:27;100471.38;;;11.71;75.85
50592;BME280;36548;50.506;30.834;2023-04-08T04:29:43;100469.58;;;11.72;75.93
50592;BME280;36548;50.506;30.834;2023-04-08T04:30:52;100475.06;;;11.70;75.54
50592;BME280;36548;50.506;30.834;2023-04-08T04:32:03;100479.91;;;11.78;75.85
50592;BME280;36548;50.506;30.834;2023-04-08T04:33:18;100471.53;;;11.97;75.35
50592;BME280;36548;50.506;30.834;2023-04-08T04:34:28;100484.08;;;11.69;74.64
50592;BME280;36548;50.506;30.834;2023-04-08T04:35:43;100472.20;;;11.86;74.69
50592;BME280;36548;50.506;30.834;2023-04-08T04:36:52;100477.76;;;11.98;75.59
50592;BME280;36548;50.506;30.834;2023-04-08T04:38:07;100474.14;;;12.11;74.25
50592;BME280;36548;50.506;30.834;2023-04-08T04:39:18;100476.72;;;12.13;74.72
50592;BME280;36548;50.506;30.834;2023-04-08T04:40:33;100472.25;;;12.26;74.03
50592;BME280;36548;50.506;30.834;2023-04-08T04:41:43;100474.80;;;12.15;73.39
50592;BME280;36548;50.506;30.834;2023-04-08T04:42:52;100475.89;;;12.25;73.24
50592;BME280;36548;50.506;30.834;2023-04-08T04:44:02;100483.86;;;12.27;72.79
50592;BME280;36548;50.506;30.834;2023-04-08T04:45:14;100478.48;;;12.27;72.60
50592;BME280;36548;50.506;30.834;2023-04-08T04:46:30;100481.33;;;12.51;73.62
50592;BME280;36548;50.506;30.834;2023-04-08T04:47:39;100477.23;;;12.45;72.89
50592;BME280;36548;50.506;30.834;2023-04-08T04:48:55;100484.91;;;12.65;72.31
50592;BME280;36548;50.506;30.834;2023-04-08T04:50:05;100490.48;;;12.61;72.25
50592;BME280;36548;50.506;30.834;2023-04-08T04:51:14;100488.79;;;12.73;72.94
50592;BME280;36548;50.506;30.834;2023-04-08T04:52:24;100488.23;;;12.81;72.12
50592;BME280;36548;50.506;30.834;2023-04-08T04:53:34;100494.48;;;12.94;72.32
50592;BME280;36548;50.506;30.834;2023-04-08T04:54:49;100487.47;;;13.18;71.91
50592;BME280;36548;50.506;30.834;2023-04-08T04:55:58;100488.44;;;13.17;71.12
50592;BME280;36548;50.506;30.834;2023-04-08T04:57:09;100490.91;;;13.20;70.09
50592;BME280;36548;50.506;30.834;2023-04-08T04:58:19;100486.95;;;13.00;68.58
50592;BME280;36548;50.506;30.834;2023-04-08T04:59:34;100486.61;;;13.04;69.23
50592;BME280;36548;50.506;30.834;2023-04-08T05:00:43;100499.13;;;13.05;70.04
50592;BME280;36548;50.506;30.834;2023-04-08T05:01:54;100497.95;;;12.96;68.92
50592;BME280;36548;50.506;30.834;2023-04-08T05:03:12;100486.70;;;13.16;70.02
50592;BME280;36548;50.506;30.834;2023-04-08T05:04:24;100511.19;;;13.12;71.11
50592;BME280;36548;50.506;30.834;2023-04-08T05:05:40;100503.10;;;13.12;69.25
50592;BME280;36548;50.506;30.834;2023-04-08T05:06:49;100503.88;;;13.15;70.42
50592;BME280;36548;50.506;30.834;2023-04-08T05:08:11;100487.44;;;13.43;70.78
50592;BME280;36548;50.506;30.834;2023-04-08T05:09:20;100502.77;;;13.43;70.16
50592;BME280;36548;50.506;30.834;2023-04-08T05:10:38;100489.36;;;13.54;69.71
50592;BME280;36548;50.506;30.834;2023-04-08T05:11:48;100493.60;;;13.33;67.49
50592;BME280;36548;50.506;30.834;2023-04-08T05:13:03;100489.28;;;13.17;67.65
50592;BME280;36548;50.506;30.834;2023-04-08T05:14:12;100492.66;;;13.08;68.62
50592;BME280;36548;50.506;30.834;2023-04-08T05:15:28;100491.02;;;13.18;69.61
50592;BME280;36548;50.506;30.834;2023-04-08T05:16:36;100491.16;;;13.04;69.11
50592;BME280;36548;50.506;30.834;2023-04-08T05:17:47;100495.15;;;12.98;69.28
50592;BME280;36548;50.506;30.834;2023-04-08T05:18:56;100494.94;;;12.88;69.60
50592;BME280;36548;50.506;30.834;2023-04-08T05:20:11;100491.46;;;12.99;69.42
50592;BME280;36548;50.506;30.834;2023-04-08T05:21:20;100502.88;;;12.77;69.03
50592;BME280;36548;50.506;30.834;2023-04-08T05:22:35;100499.55;;;12.86;70.03
50592;BME280;36548;50.506;30.834;2023-04-08T05:23:47;100500.00;;;12.80;70.89
50592;BME280;36548;50.506;30.834;2023-04-08T05:25:03;100500.54;;;12.98;71.31
50592;BME280;36548;50.506;30.834;2023-04-08T05:26:12;100495.90;;;12.87;69.60
50592;BME280;36548;50.506;30.834;2023-04-08T05:27:28;100497.28;;;13.06;69.82
50592;BME280;36548;50.506;30.834;2023-04-08T05:28:37;100504.29;;;13.08;70.14
50592;BME280;36548;50.506;30.834;2023-04-08T05:29:46;100496.63;;;13.15;68.73
50592;BME280;36548;50.506;30.834;2023-04-08T05:31:02;100493.91;;;13.41;69.37
50592;BME280;36548;50.506;30.834;2023-04-08T05:32:11;100493.06;;;13.40;69.33
50592;BME280;36548;50.506;30.834;2023-04-08T05:33:21;100500.38;;;13.51;68.63
50592;BME280;36548;50.506;30.834;2023-04-08T05:34:32;100497.45;;;13.54;67.44
50592;BME280;36548;50.506;30.834;2023-04-08T05:35:49;100492.77;;;13.69;68.49
50592;BME280;36548;50.506;30.834;2023-04-08T05:36:58;100499.06;;;13.57;67.80
50592;BME280;36548;50.506;30.834;2023-04-08T05:38:14;100501.34;;;13.50;67.52
50592;BME280;36548;50.506;30.834;2023-04-08T05:39:24;100499.08;;;13.31;67.74
50592;BME280;36548;50.506;30.834;2023-04-08T05:40:41;100501.69;;;13.45;69.04
50592;BME280;36548;50.506;30.834;2023-04-08T05:41:49;100504.81;;;13.39;69.07
50592;BME280;36548;50.506;30.834;2023-04-08T05:43:05;100499.22;;;13.42;67.31
50592;BME280;36548;50.506;30.834;2023-04-08T05:44:14;100501.37;;;13.24;68.05
50592;BME280;36548;50.506;30.834;2023-04-08T05:45:31;100499.41;;;13.39;68.98
50592;BME280;36548;50.506;30.834;2023-04-08T05:46:41;100493.48;;;13.34;69.57
50592;BME280;36548;50.506;30.834;2023-04-08T05:47:56;100494.75;;;13.54;69.77
50592;BME280;36548;50.506;30.834;2023-04-08T05:49:07;100499.61;;;13.49;69.27
50592;BME280;36548;50.506;30.834;2023-04-08T05:50:16;100502.61;;;13.57;69.50
50592;BME280;36548;50.506;30.834;2023-04-08T05:51:31;100489.16;;;13.81;69.00
50592;BME280;36548;50.506;30.834;2023-04-08T05:52:42;100498.58;;;13.76;67.99
50592;BME280;36548;50.506;30.834;2023-04-08T05:53:59;100485.88;;;13.89;67.74
50592;BME280;36548;50.506;30.834;2023-04-08T05:55:09;100498.22;;;13.80;67.62
50592;BME280;36548;50.506;30.834;2023-04-08T05:56:19;100500.69;;;13.84;67.97
50592;BME280;36548;50.506;30.834;2023-04-08T05:57:28;100502.95;;;13.90;68.07
50592;BME280;36548;50.506;30.834;2023-04-08T05:58:44;100498.13;;;14.06;67.73
50592;BME280;36548;50.506;30.834;2023-04-08T05:59:54;100501.15;;;14.02;67.61
50592;BME280;36548;50.506;30.834;2023-04-08T06:01:09;100494.59;;;14.17;67.51
50592;BME280;36548;50.506;30.834;2023-04-08T06:02:18;100507.59;;;14.12;67.31
50592;BME280;36548;50.506;30.834;2023-04-08T06:03:33;100498.17;;;14.18;65.40
50592;BME280;36548;50.506;30.834;2023-04-08T06:04:42;100504.44;;;13.94;65.80
50592;BME280;36548;50.506;30.834;2023-04-08T06:05:51;100510.33;;;13.99;66.29
50592;BME280;36548;50.506;30.834;2023-04-08T06:07:06;100500.83;;;14.06;66.25
50592;BME280;36548;50.506;30.834;2023-04-08T06:08:16;100510.05;;;13.91;66.38
50592;BME280;36548;50.506;30.834;2023-04-08T06:09:35;100500.42;;;14.00;66.58
50592;BME280;36548;50.506;30.834;2023-04-08T06:10:50;100505.59;;;13.78;66.62
50592;BME280;36548;50.506;30.834;2023-04-08T06:11:59;100511.59;;;13.82;67.14
50592;BME280;36548;50.506;30.834;2023-04-08T06:13:16;100501.69;;;13.83;67.09
50592;BME280;36548;50.506;30.834;2023-04-08T06:14:25;100513.56;;;13.80;67.66
50592;BME280;36548;50.506;30.834;2023-04-08T06:15:35;100503.06;;;13.88;68.10
50592;BME280;36548;50.506;30.834;2023-04-08T06:16:44;100506.78;;;13.98;67.85
50592;BME280;36548;50.506;30.834;2023-04-08T06:17:54;100510.63;;;14.07;67.83
50592;BME280;36548;50.506;30.834;2023-04-08T06:19:03;100502.92;;;14.14;67.35
50592;BME280;36548;50.506;30.834;2023-04-08T06:20:21;100504.73;;;14.38;67.26
50592;BME280;36548;50.506;30.834;2023-04-08T06:21:31;100502.67;;;14.41;67.48
50592;BME280;36548;50.506;30.834;2023-04-08T06:22:40;100502.83;;;14.51;66.66
50592;BME280;36548;50.506;30.834;2023-04-08T06:23:50;100504.70;;;14.62;66.44